sensor_id;sensor_type;location;lat;lon;timestamp;pressure;altitude;pressure_sealevel;temperature;humidity
19457;BME280;9867;48.094;11.478;2023-05-12T00:00:46;94821.38;;;10.43;100.00
19457;BME280;9867;48.094;11.478;2023-05-12T00:03:14;94828.75;;;10.78;100.00
19457;BME280;9867;48.094;11.478;2023-05-12T00:05:42;94838.47;;;11.07;100.00
19457;BME280;9867;48.094;11.478;2023-05-12T00:08:10;94851.09;;;11.09;100.00
19457;BME280;9867;48.094;11.478;2023-05-12T00:10:38;94853.66;;;11.09;100.00
19457;BME280;9867;48.094;11.478;2023-05-12T00:13:06;94840.81;;;11.09;100.00
19457;BME280;9867;48.094;11.478;2023-05-12T00:15:36;94847.75;;;11.08;100.00
19457;BME280;9867;48.094;11.478;2023-05-12T00:18:04;94855.34;;;11.21;100.00
19457;BME280;9867;48.094;11.478;2023-05-12T00:20:32;94853.91;;;11.32;100.00
19457;BME280;9867;48.094;11.478;2023-05-12T00:23:00;94851.47;;;11.37;100.00
19457;BME280;9867;48.094;11.478;2023-05-12T00:25:28;94857.31;;;11.26;100.00
19457;BME280;9867;48.094;11.478;2023-05-12T00:27:56;94855.59;;;11.13;100.00
19457;BME280;9867;48.094;11.478;2023-05-12T00:30:24;94856.78;;;11.11;100.00
19457;BME280;9867;48.094;11.478;2023-05-12T00:32:53;94853.63;;;11.40;100.00
19457;BME280;9867;48.094;11.478;2023-05-12T00:35:22;94843.75;;;11.44;100.00
19457;BME280;9867;48.094;11.478;2023-05-12T00:37:51;94835.44;;;11.17;100.00
19457;BME280;9867;48.094;11.478;2023-05-12T00:40:19;94837.13;;;11.30;100.00
19457;BME280;9867;48.094;11.478;2023-05-12T00:42:47;94841.97;;;11.44;100.00
19457;BME280;9867;48.094;11.478;2023-05-12T00:45:15;94836.75;;;11.26;100.00
19457;BME280;9867;48.094;11.478;2023-05-12T00:47:44;94836.97;;;11.24;100.00
19457;BME280;9867;48.094;11.478;2023-05-12T00:50:14;94830.22;;;10.92;100.00
19457;BME280;9867;48.094;11.478;2023-05-12T00:52:42;94830.13;;;10.74;100.00
19457;BME280;9867;48.094;11.478;2023-05-12T00:55:10;94828.16;;;10.76;100.00
19457;BME280;9867;48.094;11.478;2023-05-12T00:57:39;94828.84;;;11.27;100.00
19457;BME280;9867;48.094;11.478;2023-05-12T01:00:08;94838.25;;;11.09;100.00
19457;BME280;9867;48.094;11.478;2023-05-12T01:02:37;94839.59;;;11.11;100.00
19457;BME280;9867;48.094;11.478;2023-05-12T01:05:06;94831.50;;;11.14;100.00
19457;BME280;9867;48.094;11.478;2023-05-12T01:07:38;94840.72;;;11.22;100.00
19457;BME280;9867;48.094;11.478;2023-05-12T01:10:16;94834.66;;;11.41;100.00
19457;BME280;9867;48.094;11.478;2023-05-12T01:12:44;94834.47;;;11.43;100.00
19457;BME280;9867;48.094;11.478;2023-05-12T01:15:13;94839.53;;;11.24;100.00
19457;BME280;9867;48.094;11.478;2023-05-12T01:17:46;94837.88;;;11.05;100.00
19457;BME280;9867;48.094;11.478;2023-05-12T01:20:17;94829.94;;;10.75;100.00
19457;BME280;9867;48.094;11.478;2023-05-12T01:22:48;94832.41;;;10.44;100.00
19457;BME280;9867;48.094;11.478;2023-05-12T01:25:16;94828.06;;;10.51;100.00
19457;BME280;9867;48.094;11.478;2023-05-12T01:27:47;94817.41;;;10.54;100.00
19457;BME280;9867;48.094;11.478;2023-05-12T01:30:17;94812.47;;;10.52;100.00
19457;BME280;9867;48.094;11.478;2023-05-12T01:32:46;94818.69;;;10.76;100.00
19457;BME280;9867;48.094;11.478;2023-05-12T01:35:14;94821.59;;;10.86;100.00
19457;BME280;9867;48.094;11.478;2023-05-12T01:37:48;94823.19;;;10.81;100.00
19457;BME280;9867;48.094;11.478;2023-05-12T01:40:17;94828.19;;;11.07;100.00
19457;BME280;9867;48.094;11.478;2023-05-12T01:42:47;94825.00;;;11.37;100.00
19457;BME280;9867;48.094;11.478;2023-05-12T01:45:15;94822.75;;;11.22;100.00
19457;BME280;9867;48.094;11.478;2023-05-12T01:47:43;94829.44;;;11.30;100.00
19457;BME280;9867;48.094;11.478;2023-05-12T01:50:11;94833.91;;;11.34;100.00
19457;BME280;9867;48.094;11.478;2023-05-12T01:52:39;94839.78;;;11.48;100.00
19457;BME280;9867;48.094;11.478;2023-05-12T01:55:10;94823.91;;;11.26;100.00
19457;BME280;9867;48.094;11.478;2023-05-12T01:58:00;94828.00;;;11.09;100.00
19457;BME280;9867;48.094;11.478;2023-05-12T02:00:28;94835.69;;;11.09;100.00
19457;BME280;9867;48.094;11.478;2023-05-12T02:02:57;94830.31;;;11.10;100.00
19457;BME280;9867;48.094;11.478;2023-05-12T02:05:25;94827.50;;;11.18;100.00
19457;BME280;9867;48.094;11.478;2023-05-12T02:07:53;94832.22;;;11.53;100.00
19457;BME280;9867;48.094;11.478;2023-05-12T02:10:21;94828.34;;;11.44;100.00
19457;BME280;9867;48.094;11.478;2023-05-12T02:12:49;94832.06;;;11.48;100.00
19457;BME280;9867;48.094;11.478;2023-05-12T02:15:18;94826.22;;;11.34;100.00
19457;BME280;9867;48.094;11.478;2023-05-12T02:17:46;94830.53;;;11.40;100.00
19457;BME280;9867;48.094;11.478;2023-05-12T02:20:16;94837.69;;;11.07;100.00
19457;BME280;9867;48.094;11.478;2023-05-12T02:22:45;94820.31;;;11.02;100.00
19457;BME280;9867;48.094;11.478;2023-05-12T02:25:13;94819.66;;;10.82;100.00
19457;BME280;9867;48.094;11.478;2023-05-12T02:27:41;94822.22;;;11.13;100.00
19457;BME280;9867;48.094;11.478;2023-05-12T02:30:11;94815.97;;;11.03;100.00
19457;BME280;9867;48.094;11.478;2023-05-12T02:32:41;94823.72;;;11.27;100.00
19457;BME280;9867;48.094;11.478;2023-05-12T02:35:09;94818.41;;;10.91;100.00
19457;BME280;9867;48.094;11.478;2023-05-12T02:37:38;94816.22;;;10.94;100.00
19457;BME280;9867;48.094;11.478;2023-05-12T02:40:07;94821.00;;;11.16;100.00
19457;BME280;9867;48.094;11.478;2023-05-12T02:42:35;94820.03;;;11.42;100.00
19457;BME280;9867;48.094;11.478;2023-05-12T02:45:04;94817.97;;;11.32;100.00
19457;BME280;9867;48.094;11.478;2023-05-12T02:47:32;94827.16;;;11.40;100.00
19457;BME280;9867;48.094;11.478;2023-05-12T02:50:02;94822.25;;;11.38;100.00
19457;BME280;9867;48.094;11.478;2023-05-12T02:52:31;94824.59;;;10.77;100.00
19457;BME280;9867;48.094;11.478;2023-05-12T02:54:59;94823.78;;;10.83;100.00
19457;BME280;9867;48.094;11.478;2023-05-12T02:57:26;94820.06;;;10.72;100.00
19457;BME280;9867;48.094;11.478;2023-05-12T02:59:59;94824.41;;;10.72;100.00
19457;BME280;9867;48.094;11.478;2023-05-12T03:02:28;94816.28;;;10.81;100.00
19457;BME280;9867;48.094;11.478;2023-05-12T03:04:56;94821.66;;;10.73;100.00
19457;BME280;9867;48.094;11.478;2023-05-12T03:07:25;94818.72;;;10.63;100.00
19457;BME280;9867;48.094;11.478;2023-05-12T03:09:53;94819.75;;;10.62;100.00
19457;BME280;9867;48.094;11.478;2023-05-12T03:12:21;94826.66;;;11.00;100.00
19457;BME280;9867;48.094;11.478;2023-05-12T03:14:49;94818.97;;;10.93;100.00
19457;BME280;9867;48.094;11.478;2023-05-12T03:17:17;94826.00;;;10.73;100.00
19457;BME280;9867;48.094;11.478;2023-05-12T03:19:45;94826.16;;;10.84;100.00
19457;BME280;9867;48.094;11.478;2023-05-12T03:22:15;94830.22;;;10.92;100.00
19457;BME280;9867;48.094;11.478;2023-05-12T03:24:45;94822.25;;;10.69;100.00
19457;BME280;9867;48.094;11.478;2023-05-12T03:27:13;94823.78;;;10.83;100.00
19457;BME280;9867;48.094;11.478;2023-05-12T03:29:40;94819.44;;;10.83;100.00
19457;BME280;9867;48.094;11.478;2023-05-12T03:32:08;94841.41;;;10.66;100.00
19457;BME280;9867;48.094;11.478;2023-05-12T03:34:36;94831.81;;;10.93;100.00
19457;BME280;9867;48.094;11.478;2023-05-12T03:37:04;94830.69;;;10.82;100.00
19457;BME280;9867;48.094;11.478;2023-05-12T03:39:32;94833.28;;;10.76;100.00
19457;BME280;9867;48.094;11.478;2023-05-12T03:42:01;94826.59;;;10.75;100.00
19457;BME280;9867;48.094;11.478;2023-05-12T03:44:29;94831.22;;;10.91;100.00
19457;BME280;9867;48.094;11.478;2023-05-12T03:46:57;94829.97;;;11.07;100.00
19457;BME280;9867;48.094;11.478;2023-05-12T03:49:25;94820.84;;;11.11;100.00
19457;BME280;9867;48.094;11.478;2023-05-12T03:51:53;94838.81;;;11.11;100.00
19457;BME280;9867;48.094;11.478;2023-05-12T03:54:21;94834.25;;;11.13;100.00
19457;BME280;9867;48.094;11.478;2023-05-12T03:56:51;94821.75;;;10.91;100.00
19457;BME280;9867;48.094;11.478;2023-05-12T03:59:20;94837.03;;;11.11;100.00
19457;BME280;9867;48.094;11.478;2023-05-12T04:01:48;94826.91;;;11.23;100.00
19457;BME280;9867;48.094;11.478;2023-05-12T04:04:16;94838.03;;;11.42;100.00
19457;BME280;9867;48.094;11.478;2023-05-12T04:06:44;94831.22;;;11.29;100.00
19457;BME280;9867;48.094;11.478;2023-05-12T04:09:12;94833.56;;;11.31;100.00
19457;BME280;9867;48.094;11.478;2023-05-12T04:11:40;94830.84;;;11.50;100.00
19457;BME280;9867;48.094;11.478;2023-05-12T04:14:08;94829.69;;;11.46;100.00
19457;BME280;9867;48.094;11.478;2023-05-12T04:16:37;94836.34;;;11.29;100.00
19457;BME280;9867;48.094;11.478;2023-05-12T04:19:06;94830.22;;;11.30;100.00
19457;BME280;9867;48.094;11.478;2023-05-12T04:21:34;94837.72;;;11.32;100.00
19457;BME280;9867;48.094;11.478;2023-05-12T04:24:02;94838.94;;;11.54;100.00
19457;BME280;9867;48.094;11.478;2023-05-12T04:26:33;94842.44;;;11.59;100.00
19457;BME280;9867;48.094;11.478;2023-05-12T04:29:01;94835.66;;;11.40;100.00
19457;BME280;9867;48.094;11.478;2023-05-12T04:31:29;94837.59;;;11.20;100.00
19457;BME280;9867;48.094;11.478;2023-05-12T04:33:58;94839.44;;;11.38;100.00
19457;BME280;9867;48.094;11.478;2023-05-12T04:36:27;94838.69;;;10.99;100.00
19457;BME280;9867;48.094;11.478;2023-05-12T04:38:55;94850.06;;;10.72;100.00
19457;BME280;9867;48.094;11.478;2023-05-12T04:41:23;94845.59;;;10.99;100.00
19457;BME280;9867;48.094;11.478;2023-05-12T04:43:51;94849.06;;;11.49;100.00
19457;BME280;9867;48.094;11.478;2023-05-12T04:46:26;94853.31;;;10.99;100.00
19457;BME280;9867;48.094;11.478;2023-05-12T04:49:26;94852.25;;;11.44;100.00
19457;BME280;9867;48.094;11.478;2023-05-12T04:51:54;94851.25;;;11.45;100.00
19457;BME280;9867;48.094;11.478;2023-05-12T04:54:22;94842.59;;;11.40;100.00
19457;BME280;9867;48.094;11.478;2023-05-12T04:56:50;94837.41;;;11.46;100.00
19457;BME280;9867;48.094;11.478;2023-05-12T04:59:17;94849.34;;;11.59;100.00
19457;BME280;9867;48.094;11.478;2023-05-12T05:01:48;94846.94;;;11.39;100.00
19457;BME280;9867;48.094;11.478;2023-05-12T05:04:17;94848.66;;;11.77;100.00
19457;BME280;9867;48.094;11.478;2023-05-12T05:06:46;94857.97;;;11.78;100.00
19457;BME280;9867;48.094;11.478;2023-05-12T05:09:14;94859.91;;;11.76;100.00
19457;BME280;9867;48.094;11.478;2023-05-12T05:11:42;94862.03;;;11.85;100.00
19457;BME280;9867;48.094;11.478;2023-05-12T05:14:11;94856.50;;;11.82;100.00
19457;BME280;9867;48.094;11.478;2023-05-12T05:16:39;94855.31;;;11.84;100.00
19457;BME280;9867;48.094;11.478;2023-05-12T05:19:07;94866.66;;;11.77;100.00
19457;BME280;9867;48.094;11.478;2023-05-12T05:21:53;94861.66;;;11.57;100.00
19457;BME280;9867;48.094;11.478;2023-05-12T05:24:21;94871.22;;;11.43;100.00
19457;BME280;9867;48.094;11.478;2023-05-12T05:26:53;94878.00;;;11.62;100.00
19457;BME280;9867;48.094;11.478;2023-05-12T05:29:24;94871.81;;;11.70;100.00
19457;BME280;9867;48.094;11.478;2023-05-12T05:31:52;94883.84;;;12.01;100.00
19457;BME280;9867;48.094;11.478;2023-05-12T05:34:20;94871.31;;;12.29;100.00
19457;BME280;9867;48.094;11.478;2023-05-12T05:36:48;94879.53;;;12.38;100.00
19457;BME280;9867;48.094;11.478;2023-05-12T05:39:18;94889.81;;;12.20;100.00
19457;BME280;9867;48.094;11.478;2023-05-12T05:41:46;94878.44;;;12.09;100.00
19457;BME280;9867;48.094;11.478;2023-05-12T05:44:14;94881.97;;;12.33;100.00
19457;BME280;9867;48.094;11.478;2023-05-12T05:46:42;94881.91;;;12.40;100.00
19457;BME280;9867;48.094;11.478;2023-05-12T05:49:10;94885.69;;;12.37;100.00
19457;BME280;9867;48.094;11.478;2023-05-12T05:51:37;94882.94;;;12.14;100.00
19457;BME280;9867;48.094;11.478;2023-05-12T05:54:06;94882.66;;;11.79;100.00
19457;BME280;9867;48.094;11.478;2023-05-12T05:56:35;94875.03;;;11.59;100.00
19457;BME280;9867;48.094;11.478;2023-05-12T05:59:03;94881.28;;;11.45;100.00
19457;BME280;9867;48.094;11.478;2023-05-12T06:01:31;94875.94;;;11.46;100.00
19457;BME280;9867;48.094;11.478;2023-05-12T06:04:00;94887.25;;;12.20;100.00
19457;BME280;9867;48.094;11.478;2023-05-12T06:06:28;94891.56;;;12.44;100.00
19457;BME280;9867;48.094;11.478;2023-05-12T06:08:56;94889.41;;;12.23;100.00
19457;BME280;9867;48.094;11.478;2023-05-12T06:11:25;94890.13;;;12.05;100.00
19457;BME280;9867;48.094;11.478;2023-05-12T06:13:54;94886.94;;;11.85;100.00
19457;BME280;9867;48.094;11.478;2023-05-12T06:16:25;94889.53;;;11.53;100.00
19457;BME280;9867;48.094;11.478;2023-05-12T06:18:53;94889.50;;;12.10;100.00
19457;BME280;9867;48.094;11.478;2023-05-12T06:21:21;94891.56;;;12.44;100.00
19457;BME280;9867;48.094;11.478;2023-05-12T06:23:48;94894.44;;;12.29;100.00
19457;BME280;9867;48.094;11.478;2023-05-12T06:26:17;94897.84;;;12.05;100.00
19457;BME280;9867;48.094;11.478;2023-05-12T06:28:45;94890.06;;;12.12;100.00
19457;BME280;9867;48.094;11.478;2023-05-12T06:31:14;94895.31;;;12.23;100.00
19457;BME280;9867;48.094;11.478;2023-05-12T06:33:42;94895.72;;;12.02;100.00
19457;BME280;9867;48.094;11.478;2023-05-12T06:36:11;94889.91;;;12.07;100.00
19457;BME280;9867;48.094;11.478;2023-05-12T06:38:39;94898.91;;;12.22;100.00
19457;BME280;9867;48.094;11.478;2023-05-12T06:41:07;94905.41;;;12.43;100.00
19457;BME280;9867;48.094;11.478;2023-05-12T06:43:34;94908.88;;;12.30;100.00
19457;BME280;9867;48.094;11.478;2023-05-12T06:46:02;94909.47;;;12.33;100.00
19457;BME280;9867;48.094;11.478;2023-05-12T06:48:32;94906.69;;;12.52;100.00
19457;BME280;9867;48.094;11.478;2023-05-12T06:50:59;94906.78;;;12.82;100.00
19457;BME280;9867;48.094;11.478;2023-05-12T06:53:28;94902.06;;;12.61;100.00
19457;BME280;9867;48.094;11.478;2023-05-12T06:55:56;94909.00;;;12.60;100.00
19457;BME280;9867;48.094;11.478;2023-05-12T06:58:24;94908.63;;;12.93;100.00
19457;BME280;9867;48.094;11.478;2023-05-12T07:00:52;94910.41;;;13.11;100.00
19457;BME280;9867;48.094;11.478;2023-05-12T07:03:20;94912.88;;;13.36;100.00
19457;BME280;9867;48.094;11.478;2023-05-12T07:05:50;94909.59;;;13.11;100.00
19457;BME280;9867;48.094;11.478;2023-05-12T07:08:18;94918.19;;;13.05;100.00
19457;BME280;9867;48.094;11.478;2023-05-12T07:10:46;94918.00;;;12.70;100.00
19457;BME280;9867;48.094;11.478;2023-05-12T07:13:14;94918.28;;;12.43;100.00
19457;BME280;9867;48.094;11.478;2023-05-12T07:15:42;94914.72;;;12.44;100.00
19457;BME280;9867;48.094;11.478;2023-05-12T07:18:10;94914.94;;;12.61;100.00
19457;BME280;9867;48.094;11.478;2023-05-12T07:20:38;94910.19;;;12.76;100.00
19457;BME280;9867;48.094;11.478;2023-05-12T07:23:07;94912.44;;;12.91;100.00
19457;BME280;9867;48.094;11.478;2023-05-12T07:25:35;94901.47;;;12.77;100.00
19457;BME280;9867;48.094;11.478;2023-05-12T07:28:04;94916.94;;;12.95;100.00
19457;BME280;9867;48.094;11.478;2023-05-12T07:30:32;94910.22;;;12.94;100.00
19457;BME280;9867;48.094;11.478;2023-05-12T07:33:00;94908.63;;;12.93;100.00
19457;BME280;9867;48.094;11.478;2023-05-12T07:35:30;94912.00;;;12.94;100.00
19457;BME280;9867;48.094;11.478;2023-05-12T07:37:58;94906.22;;;12.98;100.00
19457;BME280;9867;48.094;11.478;2023-05-12T07:40:31;94906.63;;;12.95;100.00
19457;BME280;9867;48.094;11.478;2023-05-12T07:42:58;94907.44;;;12.96;100.00
19457;BME280;9867;48.094;11.478;2023-05-12T07:45:26;94912.91;;;13.48;100.00
19457;BME280;9867;48.094;11.478;2023-05-12T07:47:54;94914.59;;;13.42;100.00
19457;BME280;9867;48.094;11.478;2023-05-12T07:50:22;94920.47;;;13.31;100.00
19457;BME280;9867;48.094;11.478;2023-05-12T07:52:52;94916.75;;;13.27;100.00
19457;BME280;9867;48.094;11.478;2023-05-12T07:55:21;94915.75;;;13.28;100.00
19457;BME280;9867;48.094;11.478;2023-05-12T07:57:50;94916.19;;;13.07;100.00
19457;BME280;9867;48.094;11.478;2023-05-12T08:00:19;94920.69;;;13.11;100.00
19457;BME280;9867;48.094;11.478;2023-05-12T08:02:47;94922.84;;;13.32;100.00
19457;BME280;9867;48.094;11.478;2023-05-12T08:05:15;94920.47;;;13.13;100.00
19457;BME280;9867;48.094;11.478;2023-05-12T08:07:43;94912.38;;;13.27;100.00
19457;BME280;9867;48.094;11.478;2023-05-12T08:10:12;94921.63;;;13.35;100.00
19457;BME280;9867;48.094;11.478;2023-05-12T08:12:40;94920.91;;;13.58;100.00
19457;BME280;9867;48.094;11.478;2023-05-12T08:15:10;94918.25;;;13.35;100.00
19457;BME280;9867;48.094;11.478;2023-05-12T08:17:38;94913.16;;;13.46;100.00
19457;BME280;9867;48.094;11.478;2023-05-12T08:20:07;94916.91;;;13.74;100.00
19457;BME280;9867;48.094;11.478;2023-05-12T08:22:35;94924.28;;;13.58;100.00
19457;BME280;9867;48.094;11.478;2023-05-12T08:25:03;94917.50;;;13.16;100.00
19457;BME280;9867;48.094;11.478;2023-05-12T08:27:31;94922.59;;;13.22;100.00
19457;BME280;9867;48.094;11.478;2023-05-12T08:29:59;94924.22;;;13.47;100.00
19457;BME280;9867;48.094;11.478;2023-05-12T08:32:28;94929.16;;;13.48;100.00
19457;BME280;9867;48.094;11.478;2023-05-12T08:34:56;94928.22;;;13.13;100.00
19457;BME280;9867;48.094;11.478;2023-05-12T08:37:25;94922.47;;;13.11;100.00
19457;BME280;9867;48.094;11.478;2023-05-12T08:39:53;94929.84;;;13.07;100.00
19457;BME280;9867;48.094;11.478;2023-05-12T08:42:29;94925.22;;;12.97;100.00
19457;BME280;9867;48.094;11.478;2023-05-12T08:44:58;94930.94;;;12.99;100.00
19457;BME280;9867;48.094;11.478;2023-05-12T08:47:29;94927.91;;;13.03;100.00
19457;BME280;9867;48.094;11.478;2023-05-12T08:49:59;94924.53;;;12.72;100.00
19457;BME280;9867;48.094;11.478;2023-05-12T08:52:29;94921.66;;;12.44;100.00
19457;BME280;9867;48.094;11.478;2023-05-12T08:54:59;94914.81;;;12.31;100.00
19457;BME280;9867;48.094;11.478;2023-05-12T08:57:30;94921.63;;;12.25;100.00
19457;BME280;9867;48.094;11.478;2023-05-12T08:59:58;94924.00;;;12.45;100.00
19457;BME280;9867;48.094;11.478;2023-05-12T09:02:30;94924.22;;;12.80;100.00
19457;BME280;9867;48.094;11.478;2023-05-12T09:05:18;94916.66;;;12.49;100.00
19457;BME280;9867;48.094;11.478;2023-05-12T09:07:47;94924.16;;;12.87;100.00
19457;BME280;9867;48.094;11.478;2023-05-12T09:10:17;94917.88;;;12.64;100.00
19457;BME280;9867;48.094;11.478;2023-05-12T09:13:03;94930.81;;;12.94;100.00
19457;BME280;9867;48.094;11.478;2023-05-12T09:15:38;94932.25;;;12.72;100.00
19457;BME280;9867;48.094;11.478;2023-05-12T09:18:09;94932.47;;;12.71;100.00
19457;BME280;9867;48.094;11.478;2023-05-12T09:20:37;94928.78;;;12.78;100.00
19457;BME280;9867;48.094;11.478;2023-05-12T09:23:15;94933.25;;;12.89;100.00
19457;BME280;9867;48.094;11.478;2023-05-12T09:25:44;94938.16;;;13.09;100.00
19457;BME280;9867;48.094;11.478;2023-05-12T09:28:13;94932.66;;;12.87;100.00
19457;BME280;9867;48.094;11.478;2023-05-12T09:30:41;94930.50;;;12.48;100.00
19457;BME280;9867;48.094;11.478;2023-05-12T09:33:12;94932.50;;;12.27;100.00
19457;BME280;9867;48.094;11.478;2023-05-12T09:35:40;94931.38;;;12.17;100.00
19457;BME280;9867;48.094;11.478;2023-05-12T09:38:11;94920.94;;;12.12;100.00
19457;BME280;9867;48.094;11.478;2023-05-12T09:40:39;94928.97;;;12.22;100.00
19457;BME280;9867;48.094;11.478;2023-05-12T09:43:08;94930.84;;;12.08;100.00
19457;BME280;9867;48.094;11.478;2023-05-12T09:45:40;94926.19;;;11.99;100.00
19457;BME280;9867;48.094;11.478;2023-05-12T09:48:12;94925.13;;;12.06;100.00
19457;BME280;9867;48.094;11.478;2023-05-12T09:50:44;94920.09;;;11.93;100.00
19457;BME280;9867;48.094;11.478;2023-05-12T09:53:14;94917.53;;;12.18;100.00
19457;BME280;9867;48.094;11.478;2023-05-12T09:55:43;94922.31;;;12.14;100.00
19457;BME280;9867;48.094;11.478;2023-05-12T09:58:14;94930.41;;;12.36;100.00
19457;BME280;9867;48.094;11.478;2023-05-12T10:00:43;94921.41;;;12.27;100.00
19457;BME280;9867;48.094;11.478;2023-05-12T10:03:20;94915.19;;;12.35;100.00
19457;BME280;9867;48.094;11.478;2023-05-12T10:05:52;94919.75;;;12.33;100.00
19457;BME280;9867;48.094;11.478;2023-05-12T10:08:24;94918.28;;;12.61;100.00
19457;BME280;9867;48.094;11.478;2023-05-12T10:10:52;94925.75;;;12.70;100.00
19457;BME280;9867;48.094;11.478;2023-05-12T10:13:23;94925.00;;;12.81;100.00
19457;BME280;9867;48.094;11.478;2023-05-12T10:15:54;94925.28;;;12.54;100.00
19457;BME280;9867;48.094;11.478;2023-05-12T10:18:24;94928.16;;;12.83;100.00
19457;BME280;9867;48.094;11.478;2023-05-12T10:20:52;94925.78;;;12.99;100.00
19457;BME280;9867;48.094;11.478;2023-05-12T10:23:21;94929.75;;;13.20;100.00
19457;BME280;9867;48.094;11.478;2023-05-12T10:25:50;94940.31;;;12.94;100.00
19457;BME280;9867;48.094;11.478;2023-05-12T10:28:24;94940.78;;;13.03;100.00
19457;BME280;9867;48.094;11.478;2023-05-12T10:30:52;94933.25;;;12.89;100.00
19457;BME280;9867;48.094;11.478;2023-05-12T10:33:20;94932.94;;;12.61;100.00
19457;BME280;9867;48.094;11.478;2023-05-12T10:35:50;94927.69;;;12.74;100.00
19457;BME280;9867;48.094;11.478;2023-05-12T10:38:18;94922.75;;;12.73;100.00
19457;BME280;9867;48.094;11.478;2023-05-12T10:40:54;94936.09;;;12.81;100.00
19457;BME280;9867;48.094;11.478;2023-05-12T10:43:26;94926.53;;;12.70;100.00
19457;BME280;9867;48.094;11.478;2023-05-12T10:46:15;94926.94;;;12.67;100.00
19457;BME280;9867;48.094;11.478;2023-05-12T10:48:54;94934.88;;;12.66;100.00
19457;BME280;9867;48.094;11.478;2023-05-12T10:51:24;94939.97;;;12.72;100.00
19457;BME280;9867;48.094;11.478;2023-05-12T10:53:57;94937.53;;;12.95;100.00
19457;BME280;9867;48.094;11.478;2023-05-12T10:56:29;94935.03;;;12.71;100.00
19457;BME280;9867;48.094;11.478;2023-05-12T10:59:10;94926.72;;;12.69;100.00
19457;BME280;9867;48.094;11.478;2023-05-12T11:01:40;94934.59;;;12.74;100.00
19457;BME280;9867;48.094;11.478;2023-05-12T11:04:13;94944.03;;;12.98;100.00
19457;BME280;9867;48.094;11.478;2023-05-12T11:06:43;94936.31;;;13.16;100.00
19457;BME280;9867;48.094;11.478;2023-05-12T11:09:13;94938.25;;;13.21;100.00
19457;BME280;9867;48.094;11.478;2023-05-12T11:11:43;94934.56;;;13.58;100.00
19457;BME280;9867;48.094;11.478;2023-05-12T11:14:11;94944.03;;;13.64;100.00
19457;BME280;9867;48.094;11.478;2023-05-12T11:16:43;94948.94;;;14.19;100.00
19457;BME280;9867;48.094;11.478;2023-05-12T11:19:12;94944.69;;;14.25;100.00
19457;BME280;9867;48.094;11.478;2023-05-12T11:21:42;94950.88;;;14.36;100.00
19457;BME280;9867;48.094;11.478;2023-05-12T11:24:11;94950.41;;;14.27;100.00
19457;BME280;9867;48.094;11.478;2023-05-12T11:26:39;94951.78;;;14.88;100.00
19457;BME280;9867;48.094;11.478;2023-05-12T11:29:07;94959.81;;;15.03;100.00
19457;BME280;9867;48.094;11.478;2023-05-12T11:31:35;94964.19;;;15.43;100.00
19457;BME280;9867;48.094;11.478;2023-05-12T11:34:04;94952.91;;;15.60;100.00
19457;BME280;9867;48.094;11.478;2023-05-12T11:36:38;94964.78;;;15.73;100.00
19457;BME280;9867;48.094;11.478;2023-05-12T11:39:14;94964.22;;;15.71;100.00
19457;BME280;9867;48.094;11.478;2023-05-12T11:41:43;94962.84;;;15.80;100.00
19457;BME280;9867;48.094;11.478;2023-05-12T11:44:12;94965.25;;;15.87;100.00
19457;BME280;9867;48.094;11.478;2023-05-12T11:46:40;94960.88;;;15.87;100.00
19457;BME280;9867;48.094;11.478;2023-05-12T11:49:10;94943.94;;;16.13;100.00
19457;BME280;9867;48.094;11.478;2023-05-12T11:51:42;94956.75;;;16.03;100.00
19457;BME280;9867;48.094;11.478;2023-05-12T11:54:10;94966.63;;;16.23;100.00
19457;BME280;9867;48.094;11.478;2023-05-12T11:56:46;94963.56;;;16.26;100.00
19457;BME280;9867;48.094;11.478;2023-05-12T11:59:25;94962.63;;;15.98;100.00
19457;BME280;9867;48.094;11.478;2023-05-12T12:01:53;94972.00;;;15.88;100.00
19457;BME280;9867;48.094;11.478;2023-05-12T12:04:34;94969.44;;;15.59;100.00
19457;BME280;9867;48.094;11.478;2023-05-12T12:07:02;94967.53;;;15.15;100.00
19457;BME280;9867;48.094;11.478;2023-05-12T12:09:31;94971.09;;;14.85;100.00
19457;BME280;9867;48.094;11.478;2023-05-12T12:12:02;94970.97;;;14.80;100.00
19457;BME280;9867;48.094;11.478;2023-05-12T12:14:31;94965.38;;;14.60;100.00
19457;BME280;9867;48.094;11.478;2023-05-12T12:17:00;94966.72;;;14.62;100.00
19457;BME280;9867;48.094;11.478;2023-05-12T12:19:29;94969.97;;;14.58;100.00
19457;BME280;9867;48.094;11.478;2023-05-12T12:21:57;94970.41;;;14.43;100.00
19457;BME280;9867;48.094;11.478;2023-05-12T12:24:26;94967.69;;;14.38;100.00
19457;BME280;9867;48.094;11.478;2023-05-12T12:26:54;94970.50;;;14.37;100.00
19457;BME280;9867;48.094;11.478;2023-05-12T12:29:23;94964.56;;;14.48;100.00
19457;BME280;9867;48.094;11.478;2023-05-12T12:31:54;94962.66;;;14.43;100.00
19457;BME280;9867;48.094;11.478;2023-05-12T12:34:22;94967.91;;;14.37;100.00
19457;BME280;9867;48.094;11.478;2023-05-12T12:36:50;94967.84;;;14.55;100.00
19457;BME280;9867;48.094;11.478;2023-05-12T12:39:18;94962.66;;;14.66;100.00
19457;BME280;9867;48.094;11.478;2023-05-12T12:41:47;94966.03;;;14.79;100.00
19457;BME280;9867;48.094;11.478;2023-05-12T12:44:15;94963.00;;;14.82;100.00
19457;BME280;9867;48.094;11.478;2023-05-12T12:46:45;94973.47;;;14.63;100.00
19457;BME280;9867;48.094;11.478;2023-05-12T12:49:12;94968.84;;;14.77;100.00
19457;BME280;9867;48.094;11.478;2023-05-12T12:51:40;94961.97;;;14.71;100.00
19457;BME280;9867;48.094;11.478;2023-05-12T12:54:12;94971.19;;;14.67;100.00
19457;BME280;9867;48.094;11.478;2023-05-12T12:56:41;94973.78;;;14.67;100.00
19457;BME280;9867;48.094;11.478;2023-05-12T12:59:10;94966.03;;;14.67;100.00
19457;BME280;9867;48.094;11.478;2023-05-12T13:01:38;94965.44;;;14.88;100.00